Time;durP1;ratioP1;P1;durP2;ratioP2;P2;SDS_P1;SDS_P2;PMS_P1;PMS_P2;Temp;Humidity;BMP_temperature;BMP_pressure;BME280_temperature;BME280_humidity;BME280_pressure;Samples;Min_cycle;Max_cycle;Signal;HPM_P1;HPM_P2
2021/11/25 00:00:08;;;;;;;16.45;9.13;;;;;;;3.77;83.01;100628.75;5015697;28;20100;-48
2021/11/25 00:02:33;;;;;;;17.85;9.70;;;;;;;3.84;83.54;100627.22;5015876;28;20049;-48
2021/11/25 00:04:59;;;;;;;16.55;9.20;;;;;;;4.20;82.01;100629.31;5015700;28;20436;-48
2021/11/25 00:07:24;;;;;;;19.67;10.23;;;;;;;4.29;81.28;100631.91;5015986;28;20032;-50
2021/11/25 00:09:51;;;;;;;17.38;9.68;;;;;;;4.04;81.82;100638.59;5015934;28;20034;-48
2021/11/25 00:12:16;;;;;;;22.75;9.40;;;;;;;3.98;82.51;100631.25;5016118;28;20084;-48
2021/11/25 00:14:42;;;;;;;17.67;9.20;;;;;;;3.99;82.03;100637.34;5015945;28;20105;-47
2021/11/25 00:17:07;;;;;;;15.85;8.80;;;;;;;3.88;82.85;100633.03;5015585;28;20025;-47
2021/11/25 00:19:33;;;;;;;16.55;8.88;;;;;;;3.63;83.11;100635.25;5015070;28;20034;-48
2021/11/25 00:21:58;;;;;;;20.65;9.45;;;;;;;3.65;83.92;100638.56;5014838;28;20026;-47
2021/11/25 00:24:23;;;;;;;18.65;10.02;;;;;;;3.88;82.26;100631.25;5015427;28;20037;-47
2021/11/25 00:26:49;;;;;;;18.70;9.05;;;;;;;3.78;83.00;100632.22;5014967;28;20419;-49
2021/11/25 00:29:14;;;;;;;23.55;10.73;;;;;;;3.79;82.53;100621.56;5015562;28;20041;-49
2021/11/25 00:31:40;;;;;;;19.88;10.30;;;;;;;3.81;82.53;100629.28;5014298;28;20441;-50
2021/11/25 00:34:05;;;;;;;20.38;10.50;;;;;;;3.91;81.62;100630.97;5015592;28;20025;-48
2021/11/25 00:36:31;;;;;;;17.60;10.38;;;;;;;3.91;81.95;100625.69;5015332;28;20382;-48
2021/11/25 00:38:56;;;;;;;19.55;11.57;;;;;;;3.76;82.61;100621.81;5015673;28;20057;-49
2021/11/25 00:41:22;;;;;;;21.00;11.88;;;;;;;3.76;82.21;100621.00;5015965;28;20103;-49
2021/11/25 00:43:47;;;;;;;22.30;12.07;;;;;;;3.61;82.85;100615.28;5015974;28;20117;-50
2021/11/25 00:46:13;;;;;;;22.80;12.57;;;;;;;3.21;83.60;100610.94;5016204;28;20030;-48
2021/11/25 00:48:38;;;;;;;26.75;13.85;;;;;;;3.49;83.78;100622.50;5016241;28;20385;-49
2021/11/25 00:51:04;;;;;;;26.33;13.90;;;;;;;3.50;83.48;100618.88;5016194;28;20137;-51
2021/11/25 00:53:29;;;;;;;28.80;13.65;;;;;;;3.58;83.75;100613.78;5016355;28;20034;-48
2021/11/25 00:55:55;;;;;;;24.85;13.05;;;;;;;3.61;82.70;100612.66;5015800;28;20459;-48
2021/11/25 00:58:20;;;;;;;23.35;13.57;;;;;;;3.55;83.04;100610.59;5015220;28;20113;-49
2021/11/25 01:00:49;;;;;;;25.85;13.05;;;;;;;3.40;83.30;100605.69;5015518;28;20034;-48
2021/11/25 01:03:15;;;;;;;23.40;12.13;;;;;;;3.53;83.08;100606.28;5013593;28;20028;-48
2021/11/25 01:05:41;;;;;;;26.70;13.10;;;;;;;3.33;83.24;100594.91;5011849;28;20401;-48
2021/11/25 01:08:06;;;;;;;22.83;12.80;;;;;;;3.29;83.25;100603.19;5012415;28;20018;-49
2021/11/25 01:10:31;;;;;;;24.45;13.77;;;;;;;3.35;83.55;100597.41;5012480;28;20022;-48
2021/11/25 01:12:57;;;;;;;23.20;12.00;;;;;;;3.43;83.97;100602.81;5012301;28;20100;-49
2021/11/25 01:15:31;;;;;;;25.08;12.82;;;;;;;3.46;82.78;100597.25;5012349;28;20366;-49
2021/11/25 01:18:01;;;;;;;24.45;12.90;;;;;;;3.42;82.90;100592.41;5010293;28;20037;-48
2021/11/25 01:20:27;;;;;;;28.23;13.90;;;;;;;3.23;83.26;100587.94;5012333;28;20044;-49
2021/11/25 01:22:52;;;;;;;26.05;13.50;;;;;;;3.34;82.86;100587.84;5012011;28;20098;-48
2021/11/25 01:25:18;;;;;;;24.50;13.68;;;;;;;3.37;83.23;100584.94;5012075;28;20105;-49
2021/11/25 01:27:43;;;;;;;24.42;12.88;;;;;;;3.39;82.68;100582.16;5012282;28;20036;-48
2021/11/25 01:30:09;;;;;;;24.80;12.48;;;;;;;3.13;83.27;100582.66;5011681;28;20028;-49
2021/11/25 01:32:35;;;;;;;22.67;12.43;;;;;;;3.20;83.60;100581.16;5012326;28;20018;-48
2021/11/25 01:35:01;;;;;;;26.35;12.18;;;;;;;3.20;83.94;100578.53;5012267;28;20526;-48
2021/11/25 01:37:28;;;;;;;23.00;11.45;;;;;;;3.11;84.01;100576.72;5012031;28;20509;-49
2021/11/25 01:39:54;;;;;;;25.48;12.82;;;;;;;3.18;83.18;100572.59;5009274;28;20028;-47
2021/11/25 01:42:19;;;;;;;26.38;13.38;;;;;;;3.20;83.21;100570.66;5011969;28;20104;-49
2021/11/25 01:44:45;;;;;;;24.05;12.50;;;;;;;3.10;83.00;100573.25;5010488;28;20362;-48
2021/11/25 01:47:10;;;;;;;25.63;13.27;;;;;;;2.97;83.84;100567.41;5011684;28;20025;-51
2021/11/25 01:49:36;;;;;;;27.88;13.45;;;;;;;3.04;84.10;100563.25;5011830;28;20107;-46
2021/11/25 01:52:02;;;;;;;25.52;13.75;;;;;;;3.15;83.23;100566.75;5011483;28;20024;-48
2021/11/25 01:54:27;;;;;;;27.17;12.90;;;;;;;3.29;82.55;100572.47;5011539;28;20030;-47
2021/11/25 01:56:56;;;;;;;22.88;12.98;;;;;;;3.35;82.49;100568.47;5009844;28;20107;-48
2021/11/25 01:59:22;;;;;;;25.87;13.63;;;;;;;3.20;82.30;100570.66;5011731;28;20034;-48
2021/11/25 02:01:47;;;;;;;24.05;13.43;;;;;;;3.08;82.72;100574.34;5011228;28;20032;-47
2021/11/25 02:04:12;;;;;;;25.92;14.00;;;;;;;3.06;82.83;100577.09;5011215;28;20014;-47
2021/11/25 02:06:39;;;;;;;24.90;13.80;;;;;;;2.95;83.57;100574.56;5011583;28;20080;-47
2021/11/25 02:09:05;;;;;;;26.35;13.52;;;;;;;3.01;83.37;100574.06;5011365;28;20033;-48
2021/11/25 02:11:31;;;;;;;30.80;14.63;;;;;;;3.03;83.11;100569.50;5011044;28;20438;-47
2021/11/25 02:13:56;;;;;;;26.65;13.82;;;;;;;2.76;84.26;100569.25;5011257;28;20036;-47
2021/11/25 02:16:22;;;;;;;26.88;14.40;;;;;;;2.83;83.81;100567.75;5010069;28;20089;-48
2021/11/25 02:18:47;;;;;;;27.75;14.27;;;;;;;2.83;83.69;100571.22;5010521;28;20029;-50
2021/11/25 02:21:13;;;;;;;25.95;13.45;;;;;;;2.69;83.68;100572.41;5009751;28;20038;-47
2021/11/25 02:23:38;;;;;;;26.92;14.23;;;;;;;2.79;84.88;100572.44;5011170;28;20026;-47
2021/11/25 02:26:04;;;;;;;26.67;14.60;;;;;;;2.85;82.51;100571.09;5010997;28;20021;-47
2021/11/25 02:28:34;;;;;;;31.45;15.73;;;;;;;2.90;82.87;100563.66;5010765;28;20021;-47
2021/11/25 02:31:00;;;;;;;30.35;16.60;;;;;;;2.85;82.00;100560.56;5010929;28;20029;-49
2021/11/25 02:33:25;;;;;;;29.80;16.23;;;;;;;2.87;83.48;100569.16;5010835;28;20024;-49
2021/11/25 02:35:51;;;;;;;29.08;15.80;;;;;;;2.78;83.24;100568.19;5010649;28;20025;-50
2021/11/25 02:38:16;;;;;;;33.00;16.27;;;;;;;2.82;83.64;100566.94;5010837;28;20103;-49
2021/11/25 02:40:47;;;;;;;30.33;15.98;;;;;;;2.93;84.18;100574.72;5010556;28;20473;-49
2021/11/25 02:43:14;;;;;;;33.17;16.55;;;;;;;2.86;84.49;100567.50;5010449;28;20045;-48
2021/11/25 02:45:55;;;;;;;30.90;15.57;;;;;;;2.87;83.73;100563.91;5010630;28;20018;-47
2021/11/25 02:48:23;;;;;;;28.95;15.43;;;;;;;2.70;85.46;100558.31;5009366;28;20025;-48
2021/11/25 02:50:49;;;;;;;33.22;16.23;;;;;;;2.96;83.88;100560.47;5010595;28;20104;-47
2021/11/25 02:53:19;;;;;;;33.10;17.25;;;;;;;3.01;83.14;100553.03;5010440;28;20099;-48
2021/11/25 02:55:44;;;;;;;31.85;15.88;;;;;;;2.83;84.13;100560.69;5010431;28;20045;-47
2021/11/25 02:58:10;;;;;;;34.75;17.33;;;;;;;2.89;83.26;100556.72;5010442;28;20096;-47
2021/11/25 03:00:37;;;;;;;33.33;16.30;;;;;;;2.97;83.10;100538.50;5010289;28;20025;-47
2021/11/25 03:03:07;;;;;;;31.27;16.35;;;;;;;2.93;83.04;100545.81;5009076;28;20022;-47
2021/11/25 03:05:33;;;;;;;36.03;17.10;;;;;;;2.99;83.19;100546.22;5010891;28;20438;-50
2021/11/25 03:08:02;;;;;;;29.27;15.80;;;;;;;2.88;84.73;100553.25;5010671;28;20501;-50
2021/11/25 03:10:29;;;;;;;32.35;15.80;;;;;;;3.07;84.02;100547.22;5009373;28;20140;-48
2021/11/25 03:12:54;;;;;;;31.13;16.98;;;;;;;3.06;83.60;100548.16;5010761;28;20030;-47
2021/11/25 03:15:19;;;;;;;32.00;16.38;;;;;;;3.08;83.49;100527.81;5010304;28;20037;-47
2021/11/25 03:17:45;;;;;;;34.40;17.02;;;;;;;3.24;83.17;100531.75;5009022;28;20030;-48
2021/11/25 03:20:11;;;;;;;33.47;17.45;;;;;;;3.24;82.57;100529.94;5010086;28;20037;-50
2021/11/25 03:22:36;;;;;;;36.75;16.45;;;;;;;3.21;83.32;100535.47;5010070;28;20033;-48
2021/11/25 03:25:03;;;;;;;32.80;16.08;;;;;;;3.30;82.79;100526.75;5010189;28;20398;-47
2021/11/25 03:27:28;;;;;;;33.80;17.45;;;;;;;3.16;82.78;100518.44;5009725;28;20052;-47
2021/11/25 03:29:54;;;;;;;30.80;16.42;;;;;;;3.19;82.96;100523.44;5009821;28;20030;-48
2021/11/25 03:32:19;;;;;;;32.10;15.95;;;;;;;3.40;81.56;100512.78;5010284;28;20084;-49
2021/11/25 03:34:45;;;;;;;27.45;14.68;;;;;;;3.42;82.49;100509.03;5010434;28;20030;-48
2021/11/25 03:37:10;;;;;;;28.02;14.35;;;;;;;3.49;81.92;100514.59;5010253;28;20484;-48
2021/11/25 03:39:36;;;;;;;28.27;15.70;;;;;;;3.49;81.90;100504.88;5010346;28;20038;-48
2021/11/25 03:42:01;;;;;;;32.97;15.88;;;;;;;3.43;82.77;100509.88;5010081;28;20030;-48
2021/11/25 03:44:26;;;;;;;30.75;17.00;;;;;;;3.08;83.24;100511.22;5009904;28;20481;-47
2021/11/25 03:46:53;;;;;;;35.70;18.85;;;;;;;3.22;84.37;100505.56;5009936;28;20037;-50
2021/11/25 03:49:19;;;;;;;36.28;18.05;;;;;;;3.48;82.29;100503.25;5009991;28;20072;-49
2021/11/25 03:51:44;;;;;;;34.00;16.52;;;;;;;3.19;82.90;100503.22;5009924;28;20030;-47
2021/11/25 03:54:10;;;;;;;31.25;15.85;;;;;;;3.13;83.20;100501.94;5009747;28;20025;-48
2021/11/25 03:56:35;;;;;;;31.52;15.60;;;;;;;3.30;82.57;100503.06;5009674;28;20394;-47
2021/11/25 03:59:01;;;;;;;33.40;16.98;;;;;;;3.30;82.72;100510.16;5009888;28;20148;-51
2021/11/25 04:01:26;;;;;;;32.70;16.65;;;;;;;3.30;83.01;100505.72;5008821;28;20072;-48
2021/11/25 04:03:52;;;;;;;33.45;17.42;;;;;;;3.34;83.53;100506.28;5010096;28;20033;-50
2021/11/25 04:06:17;;;;;;;39.97;19.30;;;;;;;3.31;84.09;100501.28;5009707;28;20030;-47
2021/11/25 04:08:43;;;;;;;41.53;21.05;;;;;;;3.30;82.69;100513.59;5010044;28;20402;-49
2021/11/25 04:11:08;;;;;;;42.33;21.30;;;;;;;3.30;82.08;100510.16;5009918;28;20034;-47
2021/11/25 04:13:34;;;;;;;45.13;20.88;;;;;;;3.38;81.71;100507.66;5009853;28;20025;-50
2021/11/25 04:16:00;;;;;;;39.47;19.92;;;;;;;3.53;80.46;100511.53;5009747;28;20034;-49
2021/11/25 04:18:25;;;;;;;42.72;21.80;;;;;;;3.49;80.64;100509.31;5009897;28;20036;-49
2021/11/25 04:20:50;;;;;;;46.08;20.25;;;;;;;3.18;81.50;100511.22;5009853;28;20423;-50
2021/11/25 04:23:16;;;;;;;40.45;19.85;;;;;;;3.33;80.51;100507.22;5009533;28;20033;-49
2021/11/25 04:25:41;;;;;;;42.78;20.90;;;;;;;3.19;81.58;100502.38;5010184;28;20092;-49
2021/11/25 04:28:07;;;;;;;43.33;20.27;;;;;;;3.05;82.83;100511.50;5009739;28;20346;-49
2021/11/25 04:35:49;;;;;;;47.30;21.27;;;;;;;3.29;82.58;100511.97;5009719;28;20052;-47
2021/11/25 04:38:16;;;;;;;39.28;20.65;;;;;;;3.36;82.53;100509.59;5009810;28;20334;-47
2021/11/25 04:40:45;;;;;;;43.33;18.70;;;;;;;3.19;82.49;100507.66;5012590;28;20120;-48
2021/11/25 04:43:10;;;;;;;41.92;19.63;;;;;;;3.30;82.39;100505.72;5013645;28;20030;-47
2021/11/25 04:45:37;;;;;;;36.75;18.77;;;;;;;3.22;81.66;100509.97;5013523;28;20324;-47
2021/11/25 04:48:03;;;;;;;30.40;17.52;;;;;;;3.19;81.96;100512.91;5013213;28;20030;-49
2021/11/25 04:50:29;;;;;;;33.38;17.38;;;;;;;3.29;81.76;100504.06;5013341;28;20049;-48
2021/11/25 04:52:54;;;;;;;31.20;17.17;;;;;;;3.09;82.68;100508.47;5012970;28;20184;-47
2021/11/25 04:55:20;;;;;;;31.98;17.40;;;;;;;3.06;82.27;100503.47;5013168;28;20111;-48
2021/11/25 04:57:45;;;;;;;33.75;17.70;;;;;;;3.20;82.31;100504.88;5013082;28;20049;-49
2021/11/25 05:00:11;;;;;;;36.90;18.70;;;;;;;3.24;80.82;100519.41;5012605;28;20030;-49
2021/11/25 05:02:37;;;;;;;35.75;17.88;;;;;;;3.13;81.10;100516.91;5012812;28;20129;-49
2021/11/25 05:05:04;;;;;;;34.03;17.60;;;;;;;3.10;80.68;100510.13;5012551;28;20026;-48
2021/11/25 05:07:29;;;;;;;32.72;17.23;;;;;;;3.12;81.63;100505.56;5013012;28;20048;-48
2021/11/25 05:09:55;;;;;;;32.88;16.63;;;;;;;3.18;81.08;100500.72;5013203;28;20464;-49
2021/11/25 05:12:20;;;;;;;33.55;16.15;;;;;;;3.12;81.31;100509.97;5012898;28;20474;-48
2021/11/25 05:14:46;;;;;;;31.17;16.02;;;;;;;2.98;81.60;100500.69;5012785;28;20030;-50
2021/11/25 05:17:11;;;;;;;31.30;15.98;;;;;;;2.86;82.63;100502.59;5010960;28;20169;-48
2021/11/25 05:19:37;;;;;;;30.58;15.93;;;;;;;3.98;90.67;100514.53;5012143;28;20228;-47
2021/11/25 05:22:03;;;;;;;36.10;17.05;;;;;;;4.41;86.69;100513.97;5011656;28;20030;-47
2021/11/25 05:24:28;;;;;;;29.27;15.43;;;;;;;3.96;78.65;100479.59;5012230;28;20041;-48
2021/11/25 05:26:53;;;;;;;27.90;14.88;;;;;;;4.56;77.89;100511.72;5011424;28;20343;-48
2021/11/25 05:29:21;;;;;;;25.10;13.75;;;;;;;4.69;77.65;100512.19;5011053;28;20038;-49
2021/11/25 05:31:47;;;;;;;30.30;15.10;;;;;;;4.93;81.82;100508.22;5011276;28;20028;-38
2021/11/25 05:34:12;;;;;;;21.05;12.35;;;;;;;6.15;78.62;100504.97;5012022;28;20121;-39
2021/11/25 05:36:38;;;;;;;24.23;13.65;;;;;;;6.26;72.18;100501.22;5011950;28;20029;-44
2021/11/25 05:39:03;;;;;;;26.75;13.43;;;;;;;6.57;72.64;100503.38;5011608;28;20481;-48
2021/11/25 05:41:29;;;;;;;23.95;13.45;;;;;;;6.54;70.64;100509.81;5011875;28;20084;-48
2021/11/25 05:43:54;;;;;;;26.45;12.55;;;;;;;6.68;69.00;100504.91;5011805;28;20026;-49
2021/11/25 05:46:20;;;;;;;25.33;13.15;;;;;;;6.71;70.32;100507.25;5011295;28;20029;-48
2021/11/25 05:48:45;;;;;;;23.45;12.93;;;;;;;6.98;72.51;100504.31;5012088;28;20655;-48
2021/11/25 05:51:11;;;;;;;24.08;13.43;;;;;;;6.23;67.52;100515.59;5011286;28;20022;-48
2021/11/25 05:53:36;;;;;;;26.23;14.63;;;;;;;5.60;70.37;100498.13;5011555;28;20370;-50
2021/11/25 05:56:02;;;;;;;33.28;14.85;;;;;;;5.33;72.12;100498.19;5011727;28;20041;-49
2021/11/25 05:58:27;;;;;;;41.40;22.85;;;;;;;5.03;74.23;100508.97;5012429;28;20113;-52
2021/11/25 06:00:53;;;;;;;37.30;17.88;;;;;;;5.08;75.67;100503.22;5011586;28;20030;-49
2021/11/25 06:03:19;;;;;;;27.23;14.65;;;;;;;5.01;75.25;100507.47;5011350;28;20359;-51
2021/11/25 06:05:44;;;;;;;30.70;15.27;;;;;;;5.27;75.23;100510.19;5012283;28;20033;-52
2021/11/25 06:08:10;;;;;;;31.55;14.55;;;;;;;5.34;74.33;100511.25;5005963;28;20101;-49
2021/11/25 06:10:35;;;;;;;24.58;13.20;;;;;;;5.57;74.38;100519.53;5003655;28;20045;-51
2021/11/25 06:13:01;;;;;;;23.50;12.77;;;;;;;5.60;73.50;100518.44;5007920;28;20053;-51
2021/11/25 06:15:27;;;;;;;26.75;12.95;;;;;;;5.73;74.24;100523.28;5006389;28;20069;-51
2021/11/25 06:17:52;;;;;;;26.98;13.38;;;;;;;5.85;73.50;100524.72;4992410;28;20057;-51
2021/11/25 06:20:18;;;;;;;25.20;12.93;;;;;;;5.71;72.72;100517.34;4992063;28;20152;-50
2021/11/25 06:22:46;;;;;;;17.60;10.88;;;;;;;5.46;72.31;100517.13;4997178;28;20112;-50
2021/11/25 06:25:12;;;;;;;23.52;11.43;;;;;;;5.28;73.31;100517.13;4995566;28;20022;-53
2021/11/25 06:27:38;;;;;;;17.95;10.75;;;;;;;5.27;73.52;100523.38;4991335;28;20188;-50
2021/11/25 06:30:05;;;;;;;24.38;10.38;;;;;;;4.96;73.35;100488.59;4991443;28;20177;-49
2021/11/25 06:32:30;;;;;;;19.67;10.98;;;;;;;5.19;73.12;100515.38;4991086;28;20457;-49
2021/11/25 06:34:55;;;;;;;18.23;10.32;;;;;;;4.97;74.07;100512.19;4991054;28;20447;-48
2021/11/25 06:37:21;;;;;;;22.45;10.85;;;;;;;4.92;74.23;100508.34;5010666;28;20037;-49
2021/11/25 06:39:46;;;;;;;20.40;10.57;;;;;;;4.94;74.26;100493.19;5009030;28;20026;-52
2021/11/25 06:42:12;;;;;;;20.83;11.80;;;;;;;5.07;73.80;100505.03;5009129;28;20351;-52
2021/11/25 06:44:37;;;;;;;23.15;11.15;;;;;;;5.15;72.76;100509.56;5009802;28;20033;-48
2021/11/25 06:47:03;;;;;;;23.30;11.52;;;;;;;5.07;74.19;100509.50;5008510;28;20034;-52
2021/11/25 06:49:28;;;;;;;19.55;11.15;;;;;;;5.20;73.94;100507.31;5009056;28;20042;-50
2021/11/25 06:51:54;;;;;;;23.40;11.20;;;;;;;5.16;73.79;100508.59;5008559;28;20375;-49
2021/11/25 06:54:19;;;;;;;21.15;10.80;;;;;;;5.24;73.20;100505.22;5008628;28;20040;-49
2021/11/25 06:56:45;;;;;;;20.75;10.82;;;;;;;5.37;72.44;100513.59;5007083;28;20057;-48
2021/11/25 06:59:10;;;;;;;92.15;46.00;;;;;;;5.46;71.88;100507.41;5008520;28;20030;-49
2021/11/25 07:01:36;;;;;;;25.73;12.85;;;;;;;5.50;71.93;100505.28;5009451;28;20033;-51
2021/11/25 07:04:02;;;;;;;25.63;10.82;;;;;;;5.45;71.62;100508.38;5010137;28;20419;-50
2021/11/25 07:06:27;;;;;;;19.95;11.25;;;;;;;5.46;71.51;100502.13;5010681;28;20026;-50
2021/11/25 07:08:52;;;;;;;22.58;11.88;;;;;;;5.11;72.57;100502.94;5010358;28;20041;-50
2021/11/25 07:11:18;;;;;;;21.35;11.70;;;;;;;5.47;71.34;100497.69;5010491;28;20065;-50
2021/11/25 07:13:43;;;;;;;20.05;11.23;;;;;;;5.39;72.19;100498.44;5009637;28;20033;-48
2021/11/25 07:16:09;;;;;;;23.77;12.32;;;;;;;5.52;71.50;100495.41;5009916;28;20037;-48
2021/11/25 07:18:34;;;;;;;25.20;13.25;;;;;;;5.70;71.33;100497.22;5010326;28;20475;-48
2021/11/25 07:21:00;;;;;;;21.67;12.10;;;;;;;5.74;71.00;100494.09;5010110;28;20022;-51
2021/11/25 07:23:25;;;;;;;22.00;12.48;;;;;;;5.95;70.12;100496.41;5009588;28;20120;-49
2021/11/25 07:25:51;;;;;;;23.58;12.45;;;;;;;5.82;71.20;100493.31;5010418;28;20033;-51
2021/11/25 07:28:17;;;;;;;25.42;13.60;;;;;;;5.86;70.82;100492.88;5008661;28;20056;-49
2021/11/25 07:30:42;;;;;;;27.27;13.35;;;;;;;5.58;72.33;100467.53;5009971;28;20032;-50
2021/11/25 07:33:08;;;;;;;30.35;15.07;;;;;;;5.68;72.61;100498.16;5009785;28;20050;-50
2021/11/25 07:35:33;;;;;;;77.63;36.30;;;;;;;5.59;72.40;100487.69;5010024;28;20037;-49
2021/11/25 07:38:00;;;;;;;38.55;18.85;;;;;;;6.11;70.94;100494.84;5010082;28;20026;-50
2021/11/25 07:40:27;;;;;;;28.98;14.48;;;;;;;6.04;71.39;100494.66;5010349;28;20127;-51
2021/11/25 07:42:53;;;;;;;32.35;15.43;;;;;;;5.99;71.04;100496.94;4992554;28;20124;-50
2021/11/25 07:45:19;;;;;;;30.85;14.68;;;;;;;6.12;71.55;100500.00;5010171;28;20168;-48
2021/11/25 07:47:44;;;;;;;29.25;14.35;;;;;;;6.28;70.54;100498.44;5010027;28;20493;-49
2021/11/25 07:50:12;;;;;;;28.70;14.18;;;;;;;6.67;69.51;100501.44;5010292;28;20034;-49
2021/11/25 07:52:38;;;;;;;26.00;14.07;;;;;;;7.31;68.42;100500.91;5010023;28;20017;-48
2021/11/25 07:55:04;;;;;;;26.83;14.05;;;;;;;7.16;68.47;100504.22;5009787;28;20048;-39
2021/11/25 07:57:30;;;;;;;26.02;13.80;;;;;;;6.87;68.26;100504.63;5010498;28;20100;-38
2021/11/25 07:59:55;;;;;;;32.13;15.75;;;;;;;6.77;69.43;100503.94;5009521;28;20094;-39
2021/11/25 08:02:21;;;;;;;29.58;16.30;;;;;;;6.81;70.29;100505.28;5010127;28;20018;-53
2021/11/25 08:04:47;;;;;;;43.25;20.80;;;;;;;6.73;71.27;100505.25;5010247;28;20347;-39
2021/11/25 08:07:13;;;;;;;49.97;23.35;;;;;;;6.71;70.83;100505.41;5009319;28;20036;-39
2021/11/25 08:09:38;;;;;;;48.92;22.98;;;;;;;6.80;70.39;100501.81;5009335;28;20018;-38
2021/11/25 08:12:04;;;;;;;50.60;22.73;;;;;;;6.83;70.21;100500.66;5010063;28;20010;-39
2021/11/25 08:14:30;;;;;;;50.72;22.98;;;;;;;6.54;71.12;100488.66;5012496;28;20033;-39
2021/11/25 08:16:58;;;;;;;51.75;23.20;;;;;;;6.75;71.16;100498.00;5012342;28;20022;-37
2021/11/25 08:19:24;;;;;;;46.10;24.08;;;;;;;6.79;72.08;100491.38;5013786;28;20040;-37
2021/11/25 08:21:50;;;;;;;54.13;25.17;;;;;;;6.87;72.22;100491.41;5013234;28;20026;-38
2021/11/25 08:24:15;;;;;;;53.35;25.77;;;;;;;7.04;71.61;100487.81;5013202;28;20029;-38
2021/11/25 08:26:41;;;;;;;55.15;25.88;;;;;;;7.04;72.05;100487.81;5013044;28;20109;-38
2021/11/25 08:29:06;;;;;;;53.08;24.83;;;;;;;7.58;71.55;100483.91;5013355;28;20545;-39
2021/11/25 08:31:31;;;;;;;53.15;24.33;;;;;;;8.20;68.96;100488.63;5012856;28;20022;-38
2021/11/25 08:33:57;;;;;;;53.67;24.67;;;;;;;7.68;69.53;100455.41;5012798;28;20037;-38
2021/11/25 08:36:22;;;;;;;54.92;24.60;;;;;;;7.71;69.77;100481.59;5015181;28;20026;-48
2021/11/25 08:38:48;;;;;;;56.80;24.65;;;;;;;7.46;70.78;100477.28;5015926;28;20037;-49
2021/11/25 08:41:14;;;;;;;57.78;25.77;;;;;;;7.40;70.75;100466.34;5015204;28;20022;-38
2021/11/25 08:43:39;;;;;;;63.38;27.02;;;;;;;7.49;70.68;100466.34;5012687;28;20057;-38
2021/11/25 08:46:05;;;;;;;62.33;27.13;;;;;;;7.48;71.49;100462.03;5011461;28;20033;-39
2021/11/25 08:48:30;;;;;;;57.25;25.52;;;;;;;7.60;70.58;100466.84;5013643;28;20018;-51
2021/11/25 08:50:57;;;;;;;58.45;24.60;;;;;;;7.72;70.55;100469.16;5013756;28;20501;-37
2021/11/25 08:53:24;;;;;;;52.80;24.08;;;;;;;7.95;68.80;100458.69;5014210;28;20092;-47
2021/11/25 08:55:52;;;;;;;57.17;26.63;;;;;;;8.43;69.41;100456.09;5013465;28;20054;-50
2021/11/25 08:58:18;;;;;;;57.28;27.00;;;;;;;9.16;65.71;100441.59;5013237;28;20034;-48
2021/11/25 09:00:43;;;;;;;57.33;26.70;;;;;;;8.87;67.25;100443.13;5012681;28;20131;-52
2021/11/25 09:03:09;;;;;;;55.08;25.33;;;;;;;8.70;66.26;100434.41;5012271;28;20025;-49
2021/11/25 09:05:34;;;;;;;48.53;24.33;;;;;;;8.87;65.53;100426.34;5012745;28;20026;-49
2021/11/25 09:08:00;;;;;;;49.85;24.25;;;;;;;8.83;65.32;100425.88;5012691;28;20022;-47
2021/11/25 09:10:26;;;;;;;46.95;24.05;;;;;;;9.19;63.88;100425.28;5012253;28;20033;-49
2021/11/25 09:12:51;;;;;;;52.08;24.90;;;;;;;9.33;63.53;100423.72;5012559;28;20048;-48
2021/11/25 09:15:17;;;;;;;45.90;24.13;;;;;;;9.70;62.07;100422.84;5012145;28;20065;-48
2021/11/25 09:17:42;;;;;;;48.40;24.40;;;;;;;10.49;61.00;100416.19;5011812;28;20033;-48
2021/11/25 09:20:08;;;;;;;49.90;23.90;;;;;;;10.09;60.37;100419.16;5012469;28;20065;-51
2021/11/25 09:22:34;;;;;;;48.65;23.13;;;;;;;9.54;61.07;100415.88;5010457;28;20030;-48
2021/11/25 09:24:59;;;;;;;43.58;22.52;;;;;;;9.28;62.66;100404.81;5011141;28;20036;-48
2021/11/25 09:27:25;;;;;;;51.13;25.20;;;;;;;9.46;60.98;100399.19;5012119;28;20036;-48
2021/11/25 09:29:50;;;;;;;50.95;24.95;;;;;;;9.64;60.77;100401.50;5011879;28;20029;-51
2021/11/25 09:32:16;;;;;;;51.17;24.45;;;;;;;9.60;60.92;100393.06;5012062;28;20030;-49
2021/11/25 09:34:41;;;;;;;47.03;24.92;;;;;;;10.06;60.36;100384.94;5011614;28;20133;-47
2021/11/25 09:37:08;;;;;;;52.88;24.60;;;;;;;10.22;58.16;100383.06;5011968;28;20037;-48
2021/11/25 09:39:33;;;;;;;51.67;24.40;;;;;;;10.17;59.80;100379.16;5012053;28;20034;-50
2021/11/25 09:41:59;;;;;;;46.78;24.23;;;;;;;10.34;59.38;100373.66;5012006;28;20089;-49
2021/11/25 09:44:25;;;;;;;49.40;24.58;;;;;;;10.04;59.34;100368.34;5011560;28;20409;-49
2021/11/25 09:46:52;;;;;;;47.88;24.75;;;;;;;9.63;62.05;100360.00;5011799;28;20038;-48
2021/11/25 09:49:22;;;;;;;46.72;23.98;;;;;;;10.00;60.66;100364.41;5011871;28;20105;-51
2021/11/25 09:51:48;;;;;;;49.65;22.92;;;;;;;9.87;61.12;100356.25;5010189;28;20029;-48
2021/11/25 09:54:13;;;;;;;49.10;25.13;;;;;;;10.97;57.73;100360.59;5010632;28;20506;-48
2021/11/25 09:56:39;;;;;;;48.90;25.73;;;;;;;10.68;56.43;100362.38;5011139;28;20054;-47
2021/11/25 09:59:04;;;;;;;49.00;26.20;;;;;;;10.73;56.24;100353.81;5011705;28;20025;-49
2021/11/25 10:01:31;;;;;;;49.30;25.95;;;;;;;10.21;57.97;100355.66;5011276;28;20026;-48
2021/11/25 10:03:56;;;;;;;53.78;26.02;;;;;;;10.14;58.06;100354.75;5011252;28;20117;-47
2021/11/25 10:06:23;;;;;;;57.83;26.15;;;;;;;10.24;57.61;100351.78;5011231;28;20030;-49
2021/11/25 10:08:49;;;;;;;49.90;26.08;;;;;;;10.34;56.93;100342.56;5009633;28;20117;-47
2021/11/25 10:11:19;;;;;;;51.95;25.27;;;;;;;10.45;57.18;100345.72;5011120;28;20109;-49
2021/11/25 10:13:55;;;;;;;48.15;24.13;;;;;;;11.50;56.33;100349.56;5011240;28;20048;-50
2021/11/25 10:16:25;;;;;;;51.22;24.63;;;;;;;10.99;56.19;100342.59;5011809;28;20258;-51
2021/11/25 10:18:50;;;;;;;52.75;24.48;;;;;;;10.71;57.05;100332.69;5011177;28;20092;-49
2021/11/25 10:21:18;;;;;;;43.88;24.17;;;;;;;9.86;59.45;100325.34;5011229;28;20033;-48
2021/11/25 10:23:49;;;;;;;44.65;23.92;;;;;;;9.64;59.60;100330.56;5010866;28;20017;-49
2021/11/25 10:26:41;;;;;;;47.58;24.92;;;;;;;9.69;60.32;100327.34;5011094;28;20482;-51
2021/11/25 10:29:10;;;;;;;53.28;25.10;;;;;;;10.11;58.42;100324.03;5011199;28;20021;-47
2021/11/25 10:31:38;;;;;;;46.72;24.48;;;;;;;10.80;56.87;100317.44;5006468;28;20072;-48
2021/11/25 10:34:13;;;;;;;43.55;22.98;;;;;;;10.22;57.21;100312.06;5009908;28;20037;-49
2021/11/25 10:42:35;;;;;;;48.45;24.67;;;;;;;10.22;58.96;100304.09;5010616;28;20034;-48
2021/11/25 10:45:01;;;;;;;43.97;22.73;;;;;;;10.34;57.08;100305.31;5010477;28;20037;-48
2021/11/25 10:47:28;;;;;;;41.97;23.45;;;;;;;10.97;57.33;100302.00;5010131;28;20032;-50
2021/11/25 10:49:58;;;;;;;44.47;23.88;;;;;;;11.49;54.48;100294.59;5010540;28;20087;-49
2021/11/25 10:52:30;;;;;;;45.25;23.23;;;;;;;10.92;55.47;100289.25;5010304;28;20501;-49
2021/11/25 10:55:00;;;;;;;47.33;23.65;;;;;;;10.93;55.29;100279.44;5010662;28;20101;-51
2021/11/25 10:57:36;;;;;;;44.42;23.20;;;;;;;11.03;54.59;100284.44;5010098;28;20367;-48
2021/11/25 11:00:06;;;;;;;41.38;23.05;;;;;;;11.08;54.18;100276.66;5010111;28;20101;-49
2021/11/25 11:02:32;;;;;;;44.97;23.42;;;;;;;11.09;54.68;100281.81;5010702;28;20041;-48
2021/11/25 11:05:03;;;;;;;41.95;22.60;;;;;;;10.98;54.62;100269.03;5010428;28;20034;-48
2021/11/25 11:07:29;;;;;;;38.83;22.58;;;;;;;11.09;54.85;100257.03;5010012;28;20030;-51
2021/11/25 11:09:55;;;;;;;39.55;23.17;;;;;;;10.95;54.75;100259.59;5010577;28;20427;-48
2021/11/25 11:12:31;;;;;;;44.97;23.67;;;;;;;11.12;55.66;100249.47;5010275;28;20054;-49
2021/11/25 11:15:12;;;;;;;42.17;21.58;;;;;;;11.39;54.15;100249.63;5009627;28;20030;-47
2021/11/25 11:17:58;;;;;;;38.97;21.13;;;;;;;11.71;51.62;100242.00;5009769;28;20033;-48
2021/11/25 11:20:24;;;;;;;41.30;21.85;;;;;;;11.21;54.03;100238.66;5009741;28;20034;-49
2021/11/25 11:23:03;;;;;;;42.97;22.33;;;;;;;11.54;52.99;100246.84;5009674;28;20025;-50